createdAt,value
2022-08-03T00:00:00.305Z,19.0
2022-08-03T00:01:00.388Z,19.0
2022-08-03T00:02:00.232Z,19.0
2022-08-03T00:03:00.332Z,19.0
2022-08-03T00:04:00.438Z,18.9
2022-08-03T00:05:00.277Z,18.9
2022-08-03T00:06:04.060Z,18.9
2022-08-03T00:07:00.252Z,18.8
2022-08-03T00:08:00.223Z,18.8
2022-08-03T00:09:00.369Z,18.8
2022-08-03T00:10:00.499Z,18.8
2022-08-03T00:11:00.542Z,18.7
2022-08-03T00:12:00.309Z,18.7
2022-08-03T00:13:00.307Z,18.7
2022-08-03T00:14:00.293Z,18.7
2022-08-03T00:15:00.257Z,18.7
2022-08-03T00:16:00.381Z,18.7
2022-08-03T00:17:00.327Z,18.6
2022-08-03T00:18:00.297Z,18.6
2022-08-03T00:19:01.072Z,18.6
2022-08-03T00:20:00.262Z,18.5
2022-08-03T00:21:00.725Z,18.5
2022-08-03T00:22:00.295Z,18.5
2022-08-03T00:23:00.346Z,18.5
2022-08-03T00:24:00.352Z,18.5
2022-08-03T00:25:00.505Z,18.5
2022-08-03T00:26:00.698Z,18.5
2022-08-03T00:27:00.283Z,18.5
2022-08-03T00:28:01.609Z,18.5
2022-08-03T00:29:00.289Z,18.5
2022-08-03T00:30:00.664Z,18.4
2022-08-03T00:31:00.257Z,18.4
2022-08-03T00:32:00.681Z,18.4
2022-08-03T00:33:00.776Z,18.4
2022-08-03T00:34:03.525Z,18.4
2022-08-03T00:35:00.417Z,18.4
2022-08-03T00:36:00.290Z,18.3
2022-08-03T00:37:00.270Z,18.3
2022-08-03T00:38:00.428Z,18.3
2022-08-03T00:39:00.301Z,18.3
2022-08-03T00:40:00.445Z,18.3
2022-08-03T00:41:00.277Z,18.3
2022-08-03T00:42:02.649Z,18.3
2022-08-03T00:43:02.906Z,18.3
2022-08-03T00:44:00.232Z,18.3
2022-08-03T00:45:00.307Z,18.3
2022-08-03T00:46:00.257Z,18.3
2022-08-03T00:47:00.317Z,18.2
2022-08-03T00:48:01.275Z,18.2
2022-08-03T00:49:01.156Z,18.2
2022-08-03T00:50:00.224Z,18.2
2022-08-03T00:51:00.808Z,18.2
2022-08-03T00:52:01.014Z,18.2
2022-08-03T00:53:02.011Z,18.2
2022-08-03T00:54:00.324Z,18.1
2022-08-03T00:55:01.577Z,18.1
2022-08-03T00:56:00.327Z,18.1
2022-08-03T00:57:00.781Z,18.1
2022-08-03T00:58:01.734Z,18.1
2022-08-03T00:59:01.216Z,18.1
2022-08-03T01:00:00.438Z,18.1
2022-08-03T01:01:00.396Z,18.1
2022-08-03T01:02:00.394Z,18.0
2022-08-03T01:03:00.944Z,18.0
2022-08-03T01:04:00.262Z,17.9
2022-08-03T01:05:00.302Z,17.9
2022-08-03T01:06:11.400Z,17.9
2022-08-03T01:07:10.797Z,17.9
2022-08-03T01:08:04.792Z,17.8
2022-08-03T01:09:14.299Z,17.8
2022-08-03T01:10:08.949Z,17.8
2022-08-03T01:11:16.485Z,17.8
2022-08-03T01:12:09.817Z,17.7
2022-08-03T01:13:59.434Z,17.7
2022-08-03T01:14:19.195Z,17.7
2022-08-03T01:15:20.123Z,17.7
2022-08-03T01:16:11.234Z,17.7
2022-08-03T01:17:10.907Z,17.7
2022-08-03T01:18:16.120Z,17.6
2022-08-03T01:19:10.215Z,17.6
2022-08-03T01:20:00.239Z,17.6
2022-08-03T01:21:05.528Z,17.6
2022-08-03T01:22:20.154Z,17.6
2022-08-03T01:23:20.138Z,17.6
2022-08-03T01:24:18.704Z,17.5
2022-08-03T01:25:17.649Z,17.5
2022-08-03T01:26:17.548Z,17.5
2022-08-03T01:27:20.126Z,17.5
2022-08-03T01:28:10.169Z,17.5
2022-08-03T01:29:17.846Z,17.5
2022-08-03T01:30:09.101Z,17.5
2022-08-03T01:31:05.817Z,17.5
2022-08-03T01:32:58.669Z,17.5
2022-08-03T01:33:05.251Z,17.5
2022-08-03T01:34:04.374Z,17.5
2022-08-03T01:35:05.171Z,17.5
2022-08-03T01:36:03.099Z,17.5
2022-08-03T01:37:04.749Z,17.5
2022-08-03T01:38:04.668Z,17.5
2022-08-03T01:39:05.264Z,17.5
2022-08-03T01:40:02.094Z,17.5
2022-08-03T01:41:06.315Z,17.5
2022-08-03T01:42:05.075Z,17.5
2022-08-03T01:43:03.277Z,17.5
2022-08-03T01:44:28.606Z,17.5
2022-08-03T01:45:01.593Z,17.5
2022-08-03T01:46:02.049Z,17.5
2022-08-03T01:47:01.789Z,17.4
2022-08-03T01:48:01.692Z,17.4
2022-08-03T01:49:09.195Z,17.4
2022-08-03T01:50:02.527Z,17.4
2022-08-03T01:51:00.786Z,17.4
2022-08-03T01:52:05.069Z,17.4
2022-08-03T01:53:01.272Z,17.3
2022-08-03T01:54:00.744Z,17.3
2022-08-03T01:55:02.720Z,17.3
2022-08-03T01:56:02.571Z,17.3
2022-08-03T01:57:01.790Z,17.3
2022-08-03T01:58:05.799Z,17.3
2022-08-03T01:59:01.598Z,17.2
2022-08-03T02:00:00.843Z,17.2
2022-08-03T02:01:02.213Z,17.2
2022-08-03T02:02:16.023Z,17.2
2022-08-03T02:03:03.263Z,17.2
2022-08-03T02:04:02.511Z,17.1
2022-08-03T02:05:03.610Z,17.1
2022-08-03T02:06:55.618Z,17.1
2022-08-03T02:07:03.307Z,17.1
2022-08-03T02:08:03.413Z,17.1
2022-08-03T02:09:01.863Z,17.1
2022-08-03T02:10:02.742Z,17.1
2022-08-03T02:11:01.292Z,17.0
2022-08-03T02:12:00.614Z,17.0
2022-08-03T02:13:01.210Z,17.1
2022-08-03T02:14:04.101Z,17.0
2022-08-03T02:15:01.673Z,17.0
2022-08-03T02:16:01.886Z,17.0
2022-08-03T02:17:00.853Z,16.9
2022-08-03T02:18:03.876Z,17.0
2022-08-03T02:19:03.747Z,17.0
2022-08-03T02:20:01.665Z,17.0
2022-08-03T02:21:01.758Z,17.0
2022-08-03T02:22:01.901Z,17.0
2022-08-03T02:23:00.287Z,17.0
2022-08-03T02:24:00.699Z,17.0
2022-08-03T02:25:00.696Z,17.0
2022-08-03T02:26:03.649Z,17.0
2022-08-03T02:27:02.281Z,17.0
2022-08-03T02:28:10.607Z,17.0
2022-08-03T02:29:04.581Z,17.0
2022-08-03T02:30:04.578Z,17.0
2022-08-03T02:31:04.337Z,17.0
2022-08-03T02:32:02.087Z,17.0
2022-08-03T02:33:01.672Z,17.0
2022-08-03T02:34:05.458Z,17.0
2022-08-03T02:35:02.554Z,17.0
2022-08-03T02:36:02.134Z,17.0
2022-08-03T02:37:02.517Z,17.0
2022-08-03T02:38:03.577Z,17.0
2022-08-03T02:39:00.824Z,17.0
2022-08-03T02:40:04.067Z,17.0
2022-08-03T02:41:06.104Z,17.0
2022-08-03T02:42:00.383Z,17.0
2022-08-03T02:43:06.409Z,17.0
2022-08-03T02:44:07.134Z,17.0
2022-08-03T02:45:03.990Z,16.9
2022-08-03T02:46:00.573Z,16.9
2022-08-03T02:47:03.983Z,16.9
2022-08-03T02:48:04.289Z,16.9
2022-08-03T02:49:40.729Z,16.9
2022-08-03T02:50:02.478Z,16.9
2022-08-03T02:51:03.224Z,16.9
2022-08-03T02:52:01.761Z,16.9
2022-08-03T02:53:02.110Z,16.9
2022-08-03T02:54:03.090Z,16.9
2022-08-03T02:55:02.483Z,16.9
2022-08-03T02:56:02.377Z,16.9
2022-08-03T02:57:01.567Z,16.9
2022-08-03T02:58:02.196Z,16.9
2022-08-03T02:59:00.693Z,16.9
2022-08-03T03:00:00.866Z,16.8
2022-08-03T03:01:01.063Z,16.8
2022-08-03T03:02:01.221Z,16.8
2022-08-03T03:03:02.214Z,16.8
2022-08-03T03:04:01.109Z,16.8
2022-08-03T03:05:53.052Z,16.8
2022-08-03T03:06:01.292Z,16.8
2022-08-03T03:07:01.882Z,16.8
2022-08-03T03:08:00.844Z,16.8
2022-08-03T03:09:00.910Z,16.8
2022-08-03T03:10:02.481Z,16.8
2022-08-03T03:11:00.809Z,16.7
2022-08-03T03:12:01.965Z,16.7
2022-08-03T03:13:01.379Z,16.7
2022-08-03T03:14:01.575Z,16.8
2022-08-03T03:15:00.332Z,16.7
2022-08-03T03:16:02.600Z,16.8
2022-08-03T03:17:01.382Z,16.8
2022-08-03T03:18:00.720Z,16.8
2022-08-03T03:19:01.071Z,16.8
2022-08-03T03:20:01.494Z,16.8
2022-08-03T03:21:02.265Z,16.8
2022-08-03T03:22:02.533Z,16.8
2022-08-03T03:23:01.329Z,16.8
2022-08-03T03:24:00.995Z,16.8
2022-08-03T03:25:01.155Z,16.8
2022-08-03T03:26:00.917Z,16.8
2022-08-03T03:27:00.788Z,16.8
2022-08-03T03:28:02.107Z,16.8
2022-08-03T03:29:01.398Z,16.8
2022-08-03T03:30:01.394Z,16.9
2022-08-03T03:31:00.327Z,16.9
2022-08-03T03:32:01.312Z,16.9
2022-08-03T03:33:00.567Z,16.9
2022-08-03T03:34:00.565Z,16.9
2022-08-03T03:35:00.843Z,16.9
2022-08-03T03:36:00.431Z,16.9
2022-08-03T03:37:00.665Z,16.9
2022-08-03T03:38:00.243Z,16.9
2022-08-03T03:39:00.314Z,16.9
2022-08-03T03:40:00.435Z,16.9
2022-08-03T03:41:00.762Z,17.0
2022-08-03T03:42:00.971Z,17.0
2022-08-03T03:43:00.482Z,17.0
2022-08-03T03:44:00.376Z,17.0
2022-08-03T03:45:06.524Z,17.1
2022-08-03T03:46:00.343Z,17.1
2022-08-03T03:47:00.380Z,17.1
2022-08-03T03:48:00.777Z,17.1
2022-08-03T03:49:00.427Z,17.1
2022-08-03T03:50:01.235Z,17.1
2022-08-03T03:51:01.225Z,17.1
2022-08-03T03:52:00.234Z,17.1
2022-08-03T03:53:01.199Z,17.1
2022-08-03T03:54:02.976Z,17.1
2022-08-03T03:55:01.176Z,17.1
2022-08-03T03:56:02.451Z,17.1
2022-08-03T03:57:00.358Z,17.1
2022-08-03T03:58:00.253Z,17.1
2022-08-03T03:59:00.313Z,17.1
2022-08-03T04:00:00.632Z,17.2
2022-08-03T04:01:00.373Z,17.1
2022-08-03T04:02:00.310Z,17.1
2022-08-03T04:03:00.271Z,17.1
2022-08-03T04:04:00.247Z,17.1
2022-08-03T04:05:00.325Z,17.1
2022-08-03T04:06:00.311Z,17.0
2022-08-03T04:07:00.264Z,17.0
2022-08-03T04:08:05.214Z,17.0
2022-08-03T04:09:00.677Z,17.0
2022-08-03T04:10:08.807Z,17.0
2022-08-03T04:11:20.136Z,17.0
2022-08-03T04:12:01.053Z,17.0
2022-08-03T04:13:03.399Z,17.0
2022-08-03T04:14:09.669Z,17.0
2022-08-03T04:15:02.434Z,17.0
2022-08-03T04:16:02.051Z,17.0
2022-08-03T04:17:03.121Z,16.9
2022-08-03T04:18:02.348Z,16.9
2022-08-03T04:19:03.611Z,16.8
2022-08-03T04:20:02.295Z,16.8
2022-08-03T04:21:02.696Z,16.8
2022-08-03T04:22:04.685Z,16.8
2022-08-03T04:23:01.673Z,16.8
2022-08-03T04:24:02.944Z,16.8
2022-08-03T04:25:06.109Z,16.8
2022-08-03T04:26:02.394Z,16.8
2022-08-03T04:27:03.828Z,16.8
2022-08-03T04:28:30.046Z,16.8
2022-08-03T04:29:01.462Z,16.8
2022-08-03T04:30:02.758Z,16.8
2022-08-03T04:31:02.776Z,16.8
2022-08-03T04:32:00.372Z,16.8
2022-08-03T04:33:01.580Z,16.8
2022-08-03T04:34:01.175Z,16.8
2022-08-03T04:35:00.354Z,16.7
2022-08-03T04:36:03.996Z,16.7
2022-08-03T04:37:04.476Z,16.7
2022-08-03T04:38:02.339Z,16.7
2022-08-03T04:39:06.321Z,16.7
2022-08-03T04:40:04.252Z,16.7
2022-08-03T04:41:00.783Z,16.7
2022-08-03T04:42:16.925Z,16.7
2022-08-03T04:43:01.206Z,16.7
2022-08-03T04:44:02.994Z,16.7
2022-08-03T04:45:02.460Z,16.7
2022-08-03T04:46:01.680Z,16.7
2022-08-03T04:47:00.861Z,16.7
2022-08-03T04:48:02.944Z,16.7
2022-08-03T04:49:01.261Z,16.7
2022-08-03T04:50:02.456Z,16.7
2022-08-03T04:51:00.535Z,16.7
2022-08-03T04:52:00.450Z,16.7
2022-08-03T04:53:00.439Z,16.7
2022-08-03T04:54:00.421Z,16.7
2022-08-03T04:55:00.386Z,16.7
2022-08-03T04:56:04.920Z,16.7
2022-08-03T04:57:00.207Z,16.7
2022-08-03T04:58:01.757Z,16.7
2022-08-03T04:59:00.226Z,16.7
2022-08-03T05:00:03.344Z,16.7
2022-08-03T05:01:00.362Z,16.7
2022-08-03T05:02:00.297Z,16.8
2022-08-03T05:03:00.294Z,16.8
2022-08-03T05:04:00.260Z,16.8
2022-08-03T05:05:00.308Z,16.9
2022-08-03T05:06:01.828Z,16.9
2022-08-03T05:07:00.445Z,16.9
2022-08-03T05:08:00.646Z,17.0
2022-08-03T05:09:00.260Z,17.0
2022-08-03T05:10:03.139Z,17.0
2022-08-03T05:11:00.331Z,17.0
2022-08-03T05:12:00.380Z,17.1
2022-08-03T05:13:00.219Z,17.1
2022-08-03T05:14:00.214Z,17.2
2022-08-03T05:15:00.694Z,17.2
2022-08-03T05:16:00.277Z,17.3
2022-08-03T05:17:00.302Z,17.5
2022-08-03T05:18:00.249Z,17.6
2022-08-03T05:19:00.217Z,17.7
2022-08-03T05:20:00.217Z,17.9
2022-08-03T05:21:00.716Z,18.2
2022-08-03T05:22:00.341Z,18.4
2022-08-03T05:23:00.325Z,18.6
2022-08-03T05:24:00.276Z,18.8
2022-08-03T05:25:00.872Z,19.0
2022-08-03T05:26:00.282Z,19.1
2022-08-03T05:27:00.250Z,19.0
2022-08-03T05:28:00.231Z,18.9
2022-08-03T05:29:00.279Z,19.0
2022-08-03T05:30:30.733Z,19.0
2022-08-03T05:31:00.280Z,19.0
2022-08-03T05:32:02.649Z,19.0
2022-08-03T05:33:02.008Z,19.0
2022-08-03T05:34:00.361Z,18.9
2022-08-03T05:35:00.286Z,18.9
2022-08-03T05:36:03.380Z,18.9
2022-08-03T05:37:00.214Z,19.0
2022-08-03T05:38:01.987Z,19.0
2022-08-03T05:39:02.816Z,19.1
2022-08-03T05:40:00.430Z,19.3
2022-08-03T05:41:21.061Z,19.4
2022-08-03T05:42:00.735Z,19.6
2022-08-03T05:43:00.563Z,19.5
2022-08-03T05:44:00.229Z,19.8
2022-08-03T05:45:03.567Z,20.1
2022-08-03T05:46:11.558Z,20.1
2022-08-03T05:47:00.218Z,20.2
2022-08-03T05:48:00.221Z,20.4
2022-08-03T05:49:00.345Z,20.4
2022-08-03T05:50:00.244Z,20.4
2022-08-03T05:51:00.282Z,20.4
2022-08-03T05:52:13.790Z,20.4
2022-08-03T05:53:00.389Z,20.3
2022-08-03T05:54:00.218Z,20.3
2022-08-03T05:55:00.324Z,20.3
2022-08-03T05:56:13.297Z,20.4
2022-08-03T05:57:00.305Z,20.5
2022-08-03T05:58:00.883Z,20.5
2022-08-03T05:59:16.350Z,20.5
2022-08-03T06:00:04.461Z,20.7
2022-08-03T06:01:00.253Z,20.7
2022-08-03T06:02:00.347Z,20.6
2022-08-03T06:03:00.235Z,20.6
2022-08-03T06:04:00.265Z,20.8
2022-08-03T06:05:00.460Z,20.9
2022-08-03T06:06:00.767Z,21.0
2022-08-03T06:07:00.223Z,21.3
2022-08-03T06:08:00.319Z,21.5
2022-08-03T06:09:00.219Z,21.7
2022-08-03T06:10:36.427Z,21.9
2022-08-03T06:11:00.237Z,22.2
2022-08-03T06:12:00.237Z,22.3
2022-08-03T06:13:00.221Z,22.5
2022-08-03T06:14:00.301Z,22.8
2022-08-03T06:15:00.850Z,23.0
2022-08-03T06:16:00.903Z,23.2
2022-08-03T06:17:00.229Z,23.2
2022-08-03T06:18:02.253Z,23.4
2022-08-03T06:19:00.739Z,23.1
2022-08-03T06:20:00.273Z,23.0
2022-08-03T06:21:14.860Z,22.9
2022-08-03T06:22:00.325Z,22.7
2022-08-03T06:23:01.225Z,22.5
2022-08-03T06:24:00.237Z,22.4
2022-08-03T06:25:05.703Z,22.4
2022-08-03T06:26:01.480Z,22.5
2022-08-03T06:27:00.314Z,22.6
2022-08-03T06:28:00.290Z,22.6
2022-08-03T06:29:00.361Z,22.6
2022-08-03T06:30:00.271Z,22.6
2022-08-03T06:31:02.037Z,23.0
2022-08-03T06:32:00.279Z,23.2
2022-08-03T06:33:00.277Z,23.5
2022-08-03T06:34:32.839Z,23.5
2022-08-03T06:35:00.255Z,23.5
2022-08-03T06:36:00.255Z,23.8
2022-08-03T06:37:02.292Z,23.8
2022-08-03T06:38:00.348Z,24.0
2022-08-03T06:39:00.968Z,24.2
2022-08-03T06:40:00.273Z,24.3
2022-08-03T06:41:00.254Z,24.1
2022-08-03T06:42:00.264Z,24.2
2022-08-03T06:43:01.950Z,24.4
2022-08-03T06:44:03.670Z,24.6
2022-08-03T06:45:00.209Z,24.7
2022-08-03T06:46:00.267Z,24.9
2022-08-03T06:47:00.272Z,25.2
2022-08-03T06:48:06.427Z,25.4
2022-08-03T06:49:00.383Z,25.4
2022-08-03T06:50:16.658Z,25.6
2022-08-03T06:51:00.231Z,25.7
2022-08-03T06:52:04.568Z,25.8
2022-08-03T06:53:01.461Z,26.1
2022-08-03T06:54:00.282Z,26.3
2022-08-03T06:55:00.247Z,26.5
2022-08-03T06:56:00.377Z,26.7
2022-08-03T06:57:00.235Z,27.0
2022-08-03T06:58:03.505Z,27.0
2022-08-03T06:59:00.238Z,27.0
2022-08-03T07:00:08.497Z,27.2
2022-08-03T07:01:00.348Z,27.0
2022-08-03T07:02:00.274Z,27.1
2022-08-03T07:03:00.235Z,27.0
2022-08-03T07:04:00.287Z,27.1
2022-08-03T07:05:00.254Z,27.1
2022-08-03T07:06:00.263Z,26.5
2022-08-03T07:07:00.577Z,26.6
2022-08-03T07:08:00.284Z,26.9
2022-08-03T07:09:00.298Z,26.9
2022-08-03T07:10:00.626Z,27.1
2022-08-03T07:11:00.549Z,27.4
2022-08-03T07:12:00.252Z,27.5
2022-08-03T07:13:00.240Z,27.6
2022-08-03T07:14:00.234Z,27.8
2022-08-03T07:15:02.886Z,27.8
2022-08-03T07:16:00.234Z,27.9
2022-08-03T07:17:00.284Z,27.9
2022-08-03T07:18:00.422Z,27.6
2022-08-03T07:19:00.275Z,27.7
2022-08-03T07:20:02.567Z,27.7
2022-08-03T07:21:00.232Z,27.8
2022-08-03T07:22:11.393Z,27.8
2022-08-03T07:23:00.304Z,27.5
2022-08-03T07:24:00.306Z,27.4
2022-08-03T07:25:00.381Z,27.5
2022-08-03T07:26:00.351Z,27.4
2022-08-03T07:27:00.262Z,27.4
2022-08-03T07:28:00.248Z,27.5
2022-08-03T07:29:00.284Z,27.4
2022-08-03T07:30:00.531Z,27.5
2022-08-03T07:31:00.216Z,27.6
2022-08-03T07:32:01.181Z,27.5
2022-08-03T07:33:00.337Z,27.5
2022-08-03T07:34:00.310Z,27.5
2022-08-03T07:35:01.524Z,27.7
2022-08-03T07:36:00.383Z,27.7
2022-08-03T07:37:00.295Z,28.0
2022-08-03T07:38:00.223Z,27.8
2022-08-03T07:39:00.306Z,27.9
2022-08-03T07:40:00.983Z,27.9
2022-08-03T07:41:00.309Z,28.0
2022-08-03T07:42:00.353Z,28.0
2022-08-03T07:43:00.278Z,28.0
2022-08-03T07:44:00.211Z,28.0
2022-08-03T07:45:00.434Z,28.2
2022-08-03T07:46:00.282Z,28.2
2022-08-03T07:47:03.363Z,28.3
2022-08-03T07:48:00.378Z,28.2
2022-08-03T07:49:00.294Z,28.4
2022-08-03T07:50:00.252Z,28.4
2022-08-03T07:51:00.223Z,28.4
2022-08-03T07:52:00.266Z,28.3
2022-08-03T07:53:00.226Z,28.5
2022-08-03T07:54:00.593Z,28.4
2022-08-03T07:55:00.290Z,28.5
2022-08-03T07:56:00.233Z,28.9
2022-08-03T07:57:00.263Z,28.5
2022-08-03T07:58:03.537Z,28.6
2022-08-03T07:59:00.310Z,28.9
2022-08-03T08:00:02.425Z,28.9
2022-08-03T08:01:00.466Z,28.8
2022-08-03T08:02:00.285Z,28.9
2022-08-03T08:03:00.655Z,29.1
2022-08-03T08:04:00.237Z,29.1
2022-08-03T08:05:05.263Z,29.4
2022-08-03T08:06:00.588Z,29.3
2022-08-03T08:07:00.263Z,29.2
2022-08-03T08:08:00.958Z,29.1
2022-08-03T08:09:00.288Z,29.5
2022-08-03T08:10:00.343Z,29.5
2022-08-03T08:11:00.218Z,30.0
2022-08-03T08:12:00.273Z,30.0
2022-08-03T08:13:00.821Z,29.6
2022-08-03T08:14:00.312Z,29.5
2022-08-03T08:15:00.460Z,29.1
2022-08-03T08:16:00.264Z,29.2
2022-08-03T08:17:03.342Z,28.8
2022-08-03T08:18:00.467Z,29.1
2022-08-03T08:19:00.231Z,29.5
2022-08-03T08:20:00.243Z,29.6
2022-08-03T08:21:00.256Z,29.9
2022-08-03T08:22:02.826Z,30.0
2022-08-03T08:23:02.837Z,29.9
2022-08-03T08:24:00.225Z,29.4
2022-08-03T08:25:01.308Z,29.6
2022-08-03T08:26:00.376Z,29.7
2022-08-03T08:27:00.218Z,30.0
2022-08-03T08:28:30.527Z,30.1
2022-08-03T08:29:00.291Z,30.2
2022-08-03T08:30:10.387Z,29.3
2022-08-03T08:31:00.573Z,29.3
2022-08-03T08:32:00.247Z,29.0
2022-08-03T08:33:00.324Z,29.0
2022-08-03T08:34:04.644Z,28.6
2022-08-03T08:35:00.229Z,28.4
2022-08-03T08:36:00.470Z,28.4
2022-08-03T08:37:00.287Z,28.6
2022-08-03T08:38:00.377Z,29.0
2022-08-03T08:39:00.475Z,29.2
2022-08-03T08:40:00.661Z,29.2
2022-08-03T08:41:00.370Z,29.5
2022-08-03T08:42:00.307Z,29.5
2022-08-03T08:43:01.244Z,29.4
2022-08-03T08:44:01.000Z,29.6
2022-08-03T08:45:00.319Z,29.9
2022-08-03T08:46:01.011Z,30.4
2022-08-03T08:47:02.599Z,31.0
2022-08-03T08:48:05.440Z,31.2
2022-08-03T08:49:00.633Z,31.3
2022-08-03T08:50:09.850Z,30.7
2022-08-03T08:51:01.592Z,29.7
2022-08-03T08:52:02.628Z,29.4
2022-08-03T08:53:02.423Z,29.6
2022-08-03T08:54:01.933Z,29.3
2022-08-03T08:55:04.161Z,29.6
2022-08-03T08:56:01.620Z,29.6
2022-08-03T08:57:02.523Z,29.5
2022-08-03T08:58:04.473Z,29.7
2022-08-03T08:59:00.771Z,29.7
2022-08-03T09:00:01.151Z,29.4
2022-08-03T09:01:00.366Z,29.6
2022-08-03T09:02:00.422Z,30.1
2022-08-03T09:03:00.657Z,29.7
2022-08-03T09:04:01.368Z,29.6
2022-08-03T09:05:05.339Z,29.8
2022-08-03T09:06:02.770Z,30.2
2022-08-03T09:07:19.255Z,30.6
2022-08-03T09:08:00.382Z,30.8
2022-08-03T09:09:00.285Z,31.3
2022-08-03T09:10:11.182Z,31.5
2022-08-03T09:11:00.391Z,31.8
2022-08-03T09:12:14.614Z,31.9
2022-08-03T09:13:00.654Z,31.8
2022-08-03T09:14:00.251Z,31.7
2022-08-03T09:15:20.139Z,32.2
2022-08-03T09:16:13.456Z,32.1
2022-08-03T09:17:02.075Z,32.1
2022-08-03T09:18:02.667Z,32.4
2022-08-03T09:19:11.404Z,32.7
2022-08-03T09:20:05.853Z,32.7
2022-08-03T09:21:30.035Z,32.7
2022-08-03T09:22:12.497Z,32.1
2022-08-03T09:23:17.859Z,32.1
2022-08-03T09:24:04.266Z,31.7
2022-08-03T09:25:23.400Z,31.3
2022-08-03T09:26:00.409Z,31.3
2022-08-03T09:27:00.580Z,31.0
2022-08-03T09:28:12.020Z,30.3
2022-08-03T09:29:09.337Z,30.3
2022-08-03T09:30:00.319Z,30.1
2022-08-03T09:31:00.285Z,29.6
2022-08-03T09:32:02.950Z,29.9
2022-08-03T09:33:01.724Z,30.2
2022-08-03T09:34:05.155Z,30.2
2022-08-03T09:35:03.137Z,30.2
2022-08-03T09:36:00.248Z,30.2
2022-08-03T09:37:00.315Z,30.3
2022-08-03T09:38:12.525Z,30.4
2022-08-03T09:39:02.272Z,30.4
2022-08-03T09:40:00.303Z,29.7
2022-08-03T09:41:00.910Z,29.7
2022-08-03T09:42:06.167Z,29.6
2022-08-03T09:43:00.277Z,29.6
2022-08-03T09:44:00.252Z,29.1
2022-08-03T09:45:00.293Z,29.2
2022-08-03T09:46:03.051Z,29.3
2022-08-03T09:47:00.277Z,29.8
2022-08-03T09:48:20.148Z,30.6
2022-08-03T09:49:11.718Z,30.8
2022-08-03T09:50:04.197Z,30.8
2022-08-03T09:51:13.398Z,30.8
2022-08-03T09:52:31.466Z,30.3
2022-08-03T09:53:01.218Z,30.3
2022-08-03T09:54:00.582Z,30.3
2022-08-03T09:55:06.677Z,29.7
2022-08-03T09:56:34.378Z,29.7
2022-08-03T09:57:01.231Z,29.5
2022-08-03T09:58:05.199Z,28.7
2022-08-03T09:59:00.301Z,28.7
2022-08-03T10:00:09.517Z,28.2
2022-08-03T10:01:02.662Z,28.2
2022-08-03T10:02:00.461Z,28.2
2022-08-03T10:03:04.459Z,28.2
2022-08-03T10:04:03.352Z,28.2
2022-08-03T10:05:00.362Z,28.2
2022-08-03T10:06:15.034Z,28.1
2022-08-03T10:07:05.465Z,27.9
2022-08-03T10:08:13.939Z,27.9
2022-08-03T10:09:08.586Z,28.1
2022-08-03T10:10:29.926Z,28.1
2022-08-03T10:11:00.252Z,28.1
2022-08-03T10:12:08.651Z,28.1
2022-08-03T10:13:00.403Z,28.1
2022-08-03T10:14:03.825Z,28.2
2022-08-03T10:15:00.302Z,28.2
2022-08-03T10:16:22.022Z,28.3
2022-08-03T10:17:00.325Z,28.3
2022-08-03T10:18:00.243Z,28.4
2022-08-03T10:19:01.401Z,28.4
2022-08-03T10:20:00.393Z,28.3
2022-08-03T10:21:03.747Z,28.5
2022-08-03T10:22:03.714Z,28.6
2022-08-03T10:23:01.755Z,28.6
2022-08-03T10:24:02.881Z,28.6
2022-08-03T10:25:07.828Z,28.5
2022-08-03T10:26:03.681Z,28.5
2022-08-03T10:27:01.892Z,28.5
2022-08-03T10:28:01.932Z,28.6
2022-08-03T10:29:03.960Z,28.6
2022-08-03T10:30:04.066Z,28.7
2022-08-03T10:31:01.616Z,28.7
2022-08-03T10:32:05.697Z,28.8
2022-08-03T10:33:04.986Z,28.7
2022-08-03T10:34:01.079Z,28.7
2022-08-03T10:35:19.872Z,28.7
2022-08-03T10:36:01.348Z,28.7
2022-08-03T10:37:06.260Z,28.7
2022-08-03T10:38:07.065Z,28.7
2022-08-03T10:39:01.786Z,28.7
2022-08-03T10:40:01.702Z,28.6
2022-08-03T10:41:01.023Z,28.7
2022-08-03T10:42:02.855Z,28.7
2022-08-03T10:43:06.837Z,28.5
2022-08-03T10:44:06.955Z,28.5
2022-08-03T10:45:04.924Z,28.5
2022-08-03T10:46:02.146Z,28.5
2022-08-03T10:47:00.416Z,28.4
2022-08-03T10:48:00.862Z,28.5
2022-08-03T10:49:01.086Z,28.5
2022-08-03T10:50:00.949Z,28.4
2022-08-03T10:51:00.722Z,28.4
2022-08-03T10:52:00.701Z,28.4
2022-08-03T10:53:03.949Z,28.4
2022-08-03T10:54:01.829Z,28.4
2022-08-03T10:55:00.348Z,28.5
2022-08-03T10:56:00.295Z,28.5
2022-08-03T10:57:01.091Z,28.5
2022-08-03T10:58:00.412Z,28.5
2022-08-03T10:59:00.238Z,28.5
2022-08-03T11:00:00.418Z,28.5
2022-08-03T11:01:00.335Z,28.6
2022-08-03T11:02:01.321Z,28.6
2022-08-03T11:03:07.019Z,28.8
2022-08-03T11:04:00.206Z,28.8
2022-08-03T11:05:20.133Z,28.9
2022-08-03T11:06:15.253Z,28.8
2022-08-03T11:07:19.368Z,28.7
2022-08-03T11:08:18.344Z,28.6
2022-08-03T11:09:10.173Z,28.6
2022-08-03T11:10:00.329Z,28.6
2022-08-03T11:11:11.897Z,28.5
2022-08-03T11:12:20.128Z,28.5
2022-08-03T11:13:09.808Z,28.5
2022-08-03T11:14:03.977Z,28.5
2022-08-03T11:15:05.421Z,28.4
2022-08-03T11:16:05.857Z,28.4
2022-08-03T11:17:08.030Z,28.5
2022-08-03T11:18:08.157Z,28.5
2022-08-03T11:19:04.864Z,28.5
2022-08-03T11:20:00.410Z,28.5
2022-08-03T11:21:00.398Z,28.4
2022-08-03T11:22:00.336Z,28.4
2022-08-03T11:23:00.355Z,28.4
2022-08-03T11:24:04.541Z,28.4
2022-08-03T11:25:00.454Z,28.5
2022-08-03T11:26:09.856Z,28.6
2022-08-03T11:27:13.421Z,28.8
2022-08-03T11:28:20.130Z,28.7
2022-08-03T11:29:20.128Z,28.7
2022-08-03T11:30:07.807Z,28.6
2022-08-03T11:31:46.718Z,28.7
2022-08-03T11:32:00.254Z,28.7
2022-08-03T11:33:00.369Z,28.7
2022-08-03T11:34:09.220Z,28.8
2022-08-03T11:35:06.862Z,28.9
2022-08-03T11:36:01.061Z,28.9
2022-08-03T11:37:20.640Z,29.0
2022-08-03T11:38:04.963Z,29.0
2022-08-03T11:39:11.971Z,28.9
2022-08-03T11:40:02.720Z,28.9
2022-08-03T11:41:00.388Z,29.0
2022-08-03T11:42:20.162Z,29.2
2022-08-03T11:43:01.467Z,29.2
2022-08-03T11:44:00.352Z,29.2
2022-08-03T11:45:00.274Z,29.3
2022-08-03T11:46:06.436Z,29.3
2022-08-03T11:47:00.424Z,29.3
2022-08-03T11:48:14.644Z,29.4
2022-08-03T11:49:07.808Z,29.4
2022-08-03T11:50:00.435Z,29.4
2022-08-03T11:51:01.142Z,29.5
2022-08-03T11:52:00.310Z,29.5
2022-08-03T11:53:00.249Z,29.6
2022-08-03T11:54:03.596Z,29.6
2022-08-03T11:55:00.797Z,29.6
2022-08-03T11:56:01.730Z,29.6
2022-08-03T11:57:00.228Z,29.6
2022-08-03T11:59:13.239Z,29.6
2022-08-03T11:59:20.710Z,29.5
2022-08-03T12:00:00.524Z,29.6
2022-08-03T12:01:05.255Z,29.5
2022-08-03T12:02:11.179Z,29.5
2022-08-03T12:03:05.033Z,29.4
2022-08-03T12:04:04.749Z,29.4
2022-08-03T12:05:00.245Z,29.4
2022-08-03T12:06:00.426Z,29.3
2022-08-03T12:07:00.384Z,29.1
2022-08-03T12:08:03.579Z,29.0
2022-08-03T12:09:00.245Z,29.0
2022-08-03T12:10:09.325Z,28.9
2022-08-03T12:11:02.348Z,28.9
2022-08-03T12:12:01.371Z,28.9
2022-08-03T12:13:03.071Z,28.9
2022-08-03T12:14:45.596Z,28.9
2022-08-03T12:15:01.212Z,28.9
2022-08-03T12:16:01.156Z,29.0
2022-08-03T12:17:00.234Z,29.0
2022-08-03T12:18:02.435Z,28.9
2022-08-03T12:19:02.417Z,28.9
2022-08-03T12:20:00.513Z,28.9
2022-08-03T12:21:08.886Z,28.8
2022-08-03T12:22:00.302Z,28.8
2022-08-03T12:23:03.369Z,28.9
2022-08-03T12:24:04.453Z,28.9
2022-08-03T12:25:00.542Z,28.9
2022-08-03T12:26:02.344Z,29.0
2022-08-03T12:27:00.355Z,29.0
2022-08-03T12:28:37.043Z,29.0
2022-08-03T12:29:00.224Z,29.0
2022-08-03T12:30:01.273Z,29.1
2022-08-03T12:31:05.744Z,29.0
2022-08-03T12:32:00.415Z,29.0
2022-08-03T12:33:14.601Z,29.0
2022-08-03T12:34:01.977Z,29.0
2022-08-03T12:35:00.585Z,28.9
2022-08-03T12:36:03.983Z,29.0
2022-08-03T12:37:04.021Z,29.0
2022-08-03T12:38:00.386Z,29.0
2022-08-03T12:39:03.801Z,28.9
2022-08-03T12:40:08.000Z,28.9
2022-08-03T12:41:06.026Z,28.9
2022-08-03T12:42:00.350Z,28.9
2022-08-03T12:43:00.438Z,28.9
2022-08-03T12:44:01.060Z,28.9
2022-08-03T12:45:20.134Z,28.9
2022-08-03T12:46:10.842Z,28.8
2022-08-03T12:47:02.099Z,28.8
2022-08-03T12:48:01.316Z,28.8
2022-08-03T12:49:02.740Z,28.8
2022-08-03T12:50:00.265Z,28.9
2022-08-03T12:51:10.382Z,29.0
2022-08-03T12:52:04.100Z,29.0
2022-08-03T12:53:02.543Z,29.0
2022-08-03T12:54:02.079Z,29.0
2022-08-03T12:55:00.267Z,29.0
2022-08-03T12:56:05.064Z,29.0
2022-08-03T12:57:01.251Z,29.0
2022-08-03T12:58:03.548Z,29.0
2022-08-03T12:59:20.135Z,29.0
2022-08-03T13:00:19.902Z,29.0
2022-08-03T13:01:05.066Z,29.0
2022-08-03T13:02:02.173Z,29.0
2022-08-03T13:03:26.553Z,29.0
2022-08-03T13:04:00.276Z,29.0
2022-08-03T13:05:08.857Z,28.9
2022-08-03T13:06:00.277Z,28.9
2022-08-03T13:07:05.644Z,28.9
2022-08-03T13:08:00.322Z,28.9
2022-08-03T13:09:02.337Z,28.9
2022-08-03T13:10:03.784Z,29.0
2022-08-03T13:11:19.144Z,29.0
2022-08-03T13:12:09.752Z,29.0
2022-08-03T13:13:00.295Z,29.0
2022-08-03T13:14:00.279Z,29.1
2022-08-03T13:15:00.557Z,29.1
2022-08-03T13:16:00.269Z,29.1
2022-08-03T13:17:00.347Z,29.2
2022-08-03T13:18:00.256Z,29.1